Dalaman, Turkey
Current Conditions -  °F | °C
As of 12:50 AM on Monday 26 Jan 2015 (Local Time) from LTBS Reporting Station
Broken Clouds Broken Clouds  
Wind Chill: 52°   Ceiling: 10000
Heat Index: 52°   Visibility: 6mi
Dew Point: 46°   Wind: 15mph
Humidity: 82%   Direction: 120°ESE
Pressure: 30"   Gusts: NA
Location:  36.77°N, 28.8°E
Report Text: LTBS 252150Z 12013KT 9999 SCT020 BKN100 11/08 Q1016 NOSIG
Loading
Personal Weather Stations






























Interactive Weather Map New forecast layout! Learn more

10-Day Weather Forecast

Advertisements
Track Severe Weather on mobile